Search for airport 
image banner adimage banner adimage banner ad
image banner ad

6CA7 - Palomar Medical Center

Located in Escondido, United States

ICAO - 6CA7, IATA -

Data provided by Airmate  

General information

Coordinates: N33°7'21" W117°7'19"
Elevation is 1109 feet MSL.
 
View others Airports in California

Operational data

Special qualification required
Current time UTC:
Current local time:
Weather at : KCRQ - Mc Clellan-Palomar ( 15 km )
METAR: KCRQ 240853Z AUTO VRB03KT 10SM OVC014 17/14 A2999 RMK AO2 SLP153 T01670139 58002
TAF: KCRQ 240520Z 2406/2506 VRB04KT P6SM BKN011 FM241700 VRB05KT P6SM SCT015 FM242000 26009KT P6SM SKC FM250100 VRB04KT P6SM SCT014 FM250300 VRB04KT P6SM BKN011
View NOTAMs / SUP AIP / TFR affecting this airport [VIEW]
Communications frequencies: [VIEW]

Runways:

Airport contact information

Address: Escondido United States

Satellite view of 6CA7